Latest Weather Observations for Braidwood

IDN60801

Issued at 6:52 pm EDT Sunday 15 December 2019 (issued every 10 minutes, with the page automatically refreshed every 10 minutes)

About weather observations | Map of weather stations | Latest weather observations for NSW | Other Formats
Station Details ID: 069132 Name: BRAIDWOOD RACECOURSE AWS Lat: -35.43 Lon: 149.78 Height: 665.2 m
Data from the previous 72 hours. | See also: Recent months at Braidwood
Date/Time
EDT
Temp
°C
App
Temp
°C
Dew
Point
°C
Rel
Hum
%
Delta-T
°C
Wind Press
QNH
hPa
Press
MSL
hPa
Rain since
9am
mm
Dir  Spd
km/h
Gust
km/h
Spd
kts
Gust
kts
15/06:30pm 26.0 19.4 -3.5 14 13.3 WNW 22 32 12 17 1007.8 1005.3 0.0
15/06:00pm 26.7 19.4 -3.0 14 13.6 WNW 26 41 14 22 1007.5 1005.1 0.0
15/05:30pm 26.7 22.1 -1.2 16 13.2 W 13 32 7 17 1007.5 1005.1 0.0
15/05:00pm 26.2 19.2 -0.8 17 12.8 W 26 41 14 22 1008.1 1005.6 0.0
15/04:30pm 25.9 19.3 -0.2 18 12.5 WNW 24 44 13 24 1008.1 1005.6 0.0
15/04:00pm 26.6 18.9 -0.4 17 12.9 WNW 30 43 16 23 1008.1 1005.6 0.0
15/03:35pm 26.0 18.0 0.6 19 12.3 WNW 32 52 17 28 1008.2 1005.7 0.0
15/03:30pm 25.8 17.5 -0.3 18 12.4 WNW 33 52 18 28 1008.2 1005.7 0.0
15/03:17pm 26.4 18.7 0.2 18 12.6 WNW 30 48 16 26 1008.4 1005.9 0.0
15/03:00pm 26.2 17.3 0.8 19 12.4 WNW 37 54 20 29 1008.4 1005.9 0.0
15/02:50pm 26.5 18.6 1.0 19 12.5 NW 32 50 17 27 1008.4 1005.9 0.0
15/02:30pm 25.8 18.8 1.8 21 11.9 WNW 28 39 15 21 1008.5 1006.0 0.0
15/02:20pm 25.3 17.3 1.4 21 11.7 WNW 33 52 18 28 1008.5 1006.0 0.0
15/02:00pm 24.9 16.8 -0.3 19 12.0 WNW 32 43 17 23 1008.6 1006.1 0.0
15/01:45pm 25.1 17.3 -0.9 18 12.2 WNW 30 50 16 27 1008.8 1006.4 0.0
15/01:30pm 25.5 17.6 0.9 20 11.9 W 32 48 17 26 1008.6 1006.1 0.0
15/01:23pm 25.6 18.4 1.0 20 12.0 WNW 28 54 15 29 1008.6 1006.1 0.0
15/01:00pm 25.7 20.1 1.1 20 12.0 WNW 20 32 11 17 1008.8 1006.4 0.0
15/12:30pm 24.7 19.7 3.4 25 10.8 NW 19 30 10 16 1009.2 1006.8 0.0
15/12:00pm 23.7 19.5 3.6 27 10.2 NW 15 28 8 15 1009.6 1007.1 0.0
15/11:30am 23.1 18.8 5.1 31 9.3 NW 17 35 9 19 1009.5 1007.0 0.0
15/11:00am 24.4 19.8 3.7 26 10.5 WNW 17 32 9 17 1009.8 1007.3 0.0
15/10:30am 22.5 19.2 6.3 35 8.5 NW 13 22 7 12 1010.3 1007.9 0.0
15/10:00am 21.4 19.6 8.0 42 7.2 N 7 15 4 8 1010.4 1008.0 0.0
15/09:30am 19.3 18.2 9.8 54 5.2 N 6 19 3 10 1010.8 1008.4 0.0
15/09:00am 18.9 17.7 11.5 62 4.2 N 9 17 5 9 1011.1 1008.6 0.2
15/08:30am 17.8 17.2 12.3 70 3.1 NNW 7 17 4 9 1011.6 1009.2 0.2
15/08:00am 16.0 15.5 12.2 78 2.2 NNW 6 9 3 5 1012.2 1009.8 0.2
15/07:30am 15.6 15.2 12.5 82 1.8 NNW 6 9 3 5 1012.3 1009.9 0.2
15/07:12am 15.1 14.8 12.6 85 1.4 N 6 13 3 7 1012.2 1009.8 0.2
15/07:00am 14.9 14.6 12.6 86 1.3 NNW 6 9 3 5 1012.2 1009.8 0.2
15/06:30am 14.2 14.1 12.2 88 1.1 N 4 9 2 5 1012.2 1009.8 0.2
15/06:00am 13.9 13.7 11.9 88 1.1 NNE 4 9 2 5 1011.8 1009.4 0.2
15/05:30am 13.7 13.5 11.8 88 1.1 NNE 4 11 2 6 1011.9 1009.5 0.2
15/05:00am 13.6 13.4 11.7 88 1.1 NNE 4 7 2 4 1012.3 1009.9 0.2
15/04:30am 13.6 13.3 11.5 87 1.2 NE 4 9 2 5 1012.4 1010.0 0.2
15/04:00am 13.8 13.9 11.5 86 1.3 NNE 2 6 1 3 1012.7 1010.2 0.2
15/03:30am 13.8 13.5 11.5 86 1.3 NNE 4 7 2 4 1012.8 1010.3 0.2
15/03:00am 13.8 13.9 11.5 86 1.3 NNE 2 6 1 3 1013.0 1010.6 0.2
15/02:30am 13.6 13.3 11.3 86 1.3 NNE 4 7 2 4 1013.0 1010.6 0.2
15/02:00am 13.7 13.4 11.4 86 1.3 NE 4 11 2 6 1013.4 1011.0 0.2
15/01:30am 13.8 13.1 11.3 85 1.4 NE 6 11 3 6 1013.9 1011.5 0.2
15/01:07am 13.9 13.6 11.4 85 1.4 NNE 4 7 2 4 1014.3 1011.9 0.2
15/01:00am 13.9 14.0 11.4 85 1.4 NE 2 4 1 2 1014.3 1011.9 0.2
15/12:30am 14.0 13.1 11.5 85 1.4 NE 7 11 4 6 1014.3 1011.9 0.2
15/12:00am 14.2 13.5 11.9 86 1.3 NE 7 11 4 6 1014.4 1012.0 0.2
 
Date/Time
EDT
Temp
°C
App
Temp
°C
Dew
Point
°C
Rel
Hum
%
Delta-T
°C
Wind Press
QNH
hPa
Press
MSL
hPa
Rain since
9am
mm
Dir  Spd
km/h
Gust
km/h
Spd
kts
Gust
kts
14/11:30pm 14.2 12.6 11.7 85 1.4 ENE 11 13 6 7 1014.7 1012.3 0.2
14/11:00pm 14.6 13.8 11.6 82 1.7 NE 7 13 4 7 1014.5 1012.1 0.2
14/10:30pm 14.7 13.6 11.8 83 1.6 ENE 9 13 5 7 1014.7 1012.3 0.2
14/10:00pm 14.8 13.7 11.8 82 1.7 ENE 9 13 5 7 1014.6 1012.2 0.2
14/09:30pm 14.9 13.0 11.7 81 1.8 E 13 15 7 8 1014.5 1012.1 0.2
14/09:00pm 15.1 13.5 11.5 79 2.0 E 11 13 6 7 1014.5 1012.1 0.2
14/08:30pm 15.3 14.6 11.9 80 1.9 ESE 7 9 4 5 1013.9 1011.5 0.2
14/08:00pm 15.4 14.3 11.8 79 2.0 ESE 9 13 5 7 1013.4 1011.0 0.2
14/07:30pm 15.4 13.4 11.6 78 2.1 ESE 13 19 7 10 1012.9 1010.5 0.2
14/07:00pm 15.6 13.3 11.8 78 2.1 ESE 15 20 8 11 1012.8 1010.3 0.2
14/06:30pm 16.2 13.6 12.0 76 2.4 ESE 17 22 9 12 1012.6 1010.1 0.2
14/06:00pm 16.4 13.4 11.8 74 2.6 ESE 19 24 10 13 1012.0 1009.6 0.2
14/05:30pm 17.7 14.1 11.9 69 3.3 ESE 22 30 12 16 1011.8 1009.4 0.2
14/05:00pm 17.2 13.5 11.5 69 3.2 ESE 22 30 12 16 1011.8 1009.4 0.2
14/04:30pm 18.1 13.9 11.2 64 3.9 ESE 24 30 13 16 1011.6 1009.2 0.2
14/04:00pm 18.6 15.0 11.7 64 3.9 SE 22 30 12 16 1011.5 1009.1 0.2
14/03:30pm 18.5 14.7 11.3 63 4.1 SE 22 32 12 17 1011.2 1008.7 0.2
14/03:00pm 20.4 15.2 10.2 52 5.7 ESE 28 37 15 20 1010.7 1008.3 0.2
14/02:30pm 23.2 17.2 8.5 39 8.1 ESE 30 39 16 21 1010.2 1007.8 0.2
14/02:00pm 22.1 16.0 8.2 41 7.6 ESE 30 35 16 19 1010.4 1008.0 0.2
14/01:30pm 23.4 17.2 6.2 33 9.1 ESE 28 39 15 21 1010.3 1007.9 0.2
14/01:00pm 25.4 21.4 2.8 23 11.4 W 13 28 7 15 1010.6 1008.2 0.2
14/12:30pm 25.6 21.4 3.6 24 11.2 NW 15 28 8 15 1011.0 1008.5 0.2
14/12:00pm 25.3 23.2 6.5 30 10.1 NNW 7 15 4 8 1011.4 1008.9 0.2
14/11:30am 23.4 21.1 5.8 32 9.2 NNW 7 13 4 7 1011.7 1009.3 0.2
14/11:00am 23.4 21.4 6.2 33 9.1 NNE 6 20 3 11 1011.9 1009.5 0.2
14/10:30am 22.4 21.0 7.4 38 8.0 N 4 9 2 5 1012.3 1009.9 0.2
14/10:00am 20.2 18.3 6.5 41 7.1 WNW 6 11 3 6 1012.9 1010.5 0.0
14/09:30am 19.5 18.1 8.8 50 5.8 N 6 9 3 5 1013.0 1010.6 0.0
14/09:00am 17.4 16.5 9.3 59 4.4 NNW 4 7 2 4 1013.4 1011.0 0.0
14/08:30am 15.9 15.2 10.0 68 3.2 NNW 4 7 2 4 1013.2 1010.8 0.0
14/08:00am 14.5 13.9 10.3 76 2.3 NNW 4 9 2 5 1013.2 1010.8 0.0
14/07:30am 13.4 13.1 10.2 81 1.7 NNW 2 6 1 3 1013.3 1010.9 0.0
14/07:00am 12.7 13.0 10.9 89 1.0 CALM 0 0 0 0 1013.2 1010.8 0.0
14/06:30am 12.1 12.4 11.0 93 0.6 CALM 0 0 0 0 1013.2 1010.8 0.0
14/06:00am 12.1 12.5 11.2 94 0.5 CALM 0 0 0 0 1013.4 1011.0 0.0
14/05:30am 12.1 12.5 11.2 94 0.5 CALM 0 0 0 0 1013.1 1010.7 0.0
14/05:00am 12.2 12.6 11.3 94 0.5 CALM 0 0 0 0 1013.0 1010.6 0.0
14/04:30am 12.1 12.5 11.2 94 0.5 CALM 0 0 0 0 1012.9 1010.5 0.0
14/04:16am 12.1 12.5 11.2 94 0.5 CALM 0 0 0 0 1013.1 1010.7 0.0
14/04:00am 12.1 12.5 11.3 95 0.4 CALM 0 0 0 0 1013.2 1010.8 0.0
14/03:30am 12.1 12.5 11.3 95 0.4 CALM 0 0 0 0 1013.4 1011.0 0.0
14/03:13am 12.1 12.5 11.3 95 0.4 CALM 0 0 0 0 1013.2 1010.8 0.0
14/03:00am 12.0 12.4 11.1 94 0.5 CALM 0 0 0 0 1013.2 1010.8 0.0
14/02:57am 12.1 12.5 11.2 94 0.5 CALM 0 0 0 0 1013.4 1011.0 0.0
14/02:38am 12.1 12.5 11.2 94 0.5 CALM 0 0 0 0 1013.8 1011.4 0.0
14/02:30am 12.1 12.5 11.2 94 0.5 CALM 0 0 0 0 1014.0 1011.6 0.0
14/02:00am 12.1 12.5 11.2 94 0.5 CALM 0 0 0 0 1014.4 1012.0 0.0
14/01:30am 12.0 12.4 11.1 94 0.5 CALM 0 0 0 0 1014.7 1012.3 0.0
14/01:14am 12.0 12.4 11.1 94 0.5 CALM 0 0 0 0 1014.8 1012.4 0.0
14/01:00am 11.9 12.2 11.0 94 0.5 CALM 0 0 0 0 1014.9 1012.5 0.0
14/12:30am 11.8 12.1 10.9 94 0.5 CALM 0 0 0 0 1015.1 1012.7 0.0
14/12:07am 11.7 12.0 10.8 94 0.5 CALM 0 0 0 0 1015.4 1013.0 0.0
14/12:00am 11.7 12.0 10.9 95 0.4 CALM 0 0 0 0 1015.4 1013.0 0.0
 
Date/Time
EDT
Temp
°C
App
Temp
°C
Dew
Point
°C
Rel
Hum
%
Delta-T
°C
Wind Press
QNH
hPa
Press
MSL
hPa
Rain since
9am
mm
Dir  Spd
km/h
Gust
km/h
Spd
kts
Gust
kts
13/11:46pm 11.7 11.6 10.9 95 0.4 SW 2 4 1 2 1015.5 1013.2 0.0
13/11:30pm 11.6 11.8 10.7 94 0.5 CALM 0 0 0 0 1015.4 1013.0 0.0
13/11:00pm 11.5 11.7 10.6 94 0.5 CALM 0 0 0 0 1015.4 1013.0 0.0
13/10:30pm 11.4 11.6 10.6 95 0.4 CALM 0 0 0 0 1015.6 1013.3 0.0
13/10:10pm 11.4 11.2 10.6 95 0.4 SSE 2 4 1 2 1015.5 1013.2 0.0
13/10:00pm 11.4 10.9 10.6 95 0.4 SSE 4 4 2 2 1015.4 1013.0 0.0
13/09:33pm 11.3 10.7 10.4 94 0.5 SE 4 6 2 3 1015.2 1012.8 0.0
13/09:30pm 11.4 10.8 10.5 94 0.5 SE 4 6 2 3 1015.2 1012.8 0.0
13/09:00pm 11.4 10.8 10.5 94 0.5 SE 4 6 2 3 1015.1 1012.7 0.0
13/08:30pm 11.4 10.4 10.3 93 0.6 SE 6 7 3 4 1014.9 1012.5 0.0
13/08:00pm 11.5 10.3 10.2 92 0.7 SE 7 9 4 5 1014.8 1012.4 0.0
13/07:51pm 11.5 10.3 10.2 92 0.7 SE 7 11 4 6 1014.7 1012.3 0.0
13/07:30pm 11.5 9.9 10.2 92 0.7 SE 9 13 5 7 1014.5 1012.1 0.0
13/07:00pm 11.8 10.1 10.0 89 1.0 ESE 9 13 5 7 1014.4 1012.0 0.0
13/06:30pm 11.8 9.4 10.0 89 1.0 SE 13 17 7 9 1014.2 1011.8 0.0
13/06:00pm 12.0 8.9 10.4 90 0.9 SE 17 20 9 11 1013.8 1011.4 0.0
13/05:30pm 12.2 9.0 10.1 87 1.1 ESE 17 22 9 12 1013.8 1011.4 0.0
13/05:00pm 12.9 9.1 9.7 81 1.7 ESE 20 28 11 15 1013.8 1011.4 0.0
13/04:50pm 13.4 9.2 9.8 79 1.9 ESE 22 28 12 15 1013.8 1011.4 0.0
13/04:30pm 13.9 9.4 9.9 77 2.1 SE 24 32 13 17 1013.7 1011.3 0.0
13/04:00pm 15.0 11.1 9.6 70 2.9 SE 20 30 11 16 1013.5 1011.1 0.0
13/03:30pm 16.7 12.2 9.9 64 3.7 SE 24 33 13 18 1013.3 1010.9 0.0
13/03:00pm 18.9 16.0 8.3 50 5.7 E 13 20 7 11 1013.3 1010.9 0.0
13/02:30pm 18.7 15.2 8.7 52 5.4 ENE 17 24 9 13 1013.5 1011.1 0.0
13/02:00pm 18.8 16.1 9.0 53 5.3 ENE 13 26 7 14 1013.9 1011.5 0.0
13/01:30pm 18.6 15.6 9.4 55 5.0 ENE 15 22 8 12 1014.7 1012.3 0.0
13/01:00pm 17.4 14.3 8.8 57 4.6 ENE 15 26 8 14 1015.0 1012.6 0.0
13/12:30pm 17.2 14.7 8.1 55 4.8 NE 11 20 6 11 1015.3 1012.9 0.0
13/12:00pm 16.8 14.0 8.5 58 4.4 NE 13 22 7 12 1015.8 1013.4 0.0
13/11:30am 16.5 13.5 9.4 63 3.8 ENE 15 22 8 12 1015.9 1013.5 0.0
13/11:00am 15.9 12.8 8.9 63 3.7 NE 15 24 8 13 1016.1 1013.7 0.0
13/10:30am 15.3 13.1 9.4 68 3.2 NE 11 17 6 9 1016.3 1013.9 0.0
13/10:00am 14.7 12.5 9.5 71 2.8 NE 11 17 6 9 1016.3 1013.9 0.0
13/09:30am 13.4 10.8 10.6 83 1.5 ENE 15 19 8 10 1016.5 1014.1 0.0
13/09:00am 12.6 10.6 10.1 85 1.3 ENE 11 15 6 8 1016.8 1014.5 0.4
13/08:30am 12.5 11.8 9.9 84 1.4 NNE 4 9 2 5 1016.7 1014.3 0.4
13/08:00am 12.3 11.2 10.0 86 1.2 NE 6 9 3 5 1016.8 1014.5 0.4
13/07:30am 12.0 10.4 10.2 89 1.0 ENE 9 13 5 7 1016.2 1013.8 0.4
13/07:00am 11.5 10.4 10.1 91 0.7 NE 6 11 3 6 1016.0 1013.6 0.4
13/06:30am 11.0 9.7 9.8 92 0.6 NE 7 13 4 7 1016.2 1013.8 0.4
13/06:00am 10.9 10.1 9.7 92 0.6 NE 4 7 2 4 1016.0 1013.6 0.4
13/05:30am 11.0 9.7 9.9 93 0.6 NE 7 9 4 5 1016.1 1013.7 0.4
13/05:00am 11.0 9.4 10.1 94 0.5 NE 9 15 5 8 1016.1 1013.7 0.4
13/04:30am 10.9 9.6 10.0 94 0.5 NE 7 13 4 7 1015.9 1013.5 0.4
13/04:00am 11.0 9.4 10.2 95 0.4 NE 9 15 5 8 1016.0 1013.6 0.2
13/03:50am 11.0 9.4 10.2 95 0.4 NE 9 13 5 7 1016.2 1013.8 0.2
13/03:32am 10.9 9.2 10.0 94 0.5 ENE 9 13 5 7 1016.3 1013.9 0.2
13/03:30am 11.0 9.4 10.1 94 0.5 ENE 9 13 5 7 1016.3 1013.9 0.2
13/03:26am 11.0 9.4 10.1 94 0.5 ENE 9 13 5 7 1016.3 1013.9 0.2
13/03:00am 11.1 9.1 10.2 94 0.5 NE 11 15 6 8 1016.4 1014.0 0.2
13/02:30am 11.4 9.8 10.1 92 0.7 ENE 9 13 5 7 1016.8 1014.5 0.2
13/02:00am 11.5 10.3 10.2 92 0.7 NE 7 11 4 6 1017.0 1014.7 0.2
13/01:30am 11.5 11.6 10.2 92 0.7 CALM 0 0 0 0 1017.5 1015.1 0.2
13/01:00am 11.5 11.6 10.2 92 0.7 CALM 0 0 0 0 1017.7 1015.3 0.2
13/12:48am 11.4 11.5 10.1 92 0.7 CALM 0 0 0 0 1017.9 1015.5 0.2
13/12:30am 11.4 10.7 10.1 92 0.7 NE 4 7 2 4 1018.1 1015.7 0.2
13/12:00am 11.4 10.4 10.3 93 0.6 ENE 6 7 3 4 1018.4 1016.1 0.2
 
Date/Time
EDT
Temp
°C
App
Temp
°C
Dew
Point
°C
Rel
Hum
%
Delta-T
°C
Wind Press
QNH
hPa
Press
MSL
hPa
Rain since
9am
mm
Dir  Spd
km/h
Gust
km/h
Spd
kts
Gust
kts
12/11:30pm 11.4 10.3 10.1 92 0.7 E 6 9 3 5 1018.6 1016.3 0.2
12/11:08pm 11.6 10.9 10.2 91 0.7 ENE 4 9 2 5 1018.6 1016.3 0.0
12/11:00pm 11.6 10.5 10.0 90 0.8 ESE 6 9 3 5 1018.6 1016.3 0.0
12/10:48pm 11.7 10.6 9.9 89 0.9 ESE 6 7 3 4 1018.5 1016.2 0.0
12/10:30pm 11.7 10.6 9.9 89 0.9 ESE 6 7 3 4 1018.3 1016.0 0.0
12/10:22pm 11.7 10.4 9.9 89 0.9 E 7 11 4 6 1018.2 1015.9 0.0
12/10:00pm 11.9 9.8 9.6 86 1.2 E 11 13 6 7 1018.1 1015.7 0.0
12/09:51pm 11.9 9.8 9.6 86 1.2 E 11 13 6 7 1018.1 1015.7 0.0
12/09:30pm 11.8 9.8 10.0 89 1.0 ESE 11 13 6 7 1017.9 1015.5 0.0
12/09:11pm 11.7 9.3 9.9 89 0.9 ESE 13 17 7 9 1017.8 1015.4 0.0
12/09:08pm 11.7 9.6 9.9 89 0.9 ESE 11 17 6 9 1017.8 1015.4 0.0
12/09:00pm 11.8 9.7 9.9 88 1.0 ESE 11 17 6 9 1017.7 1015.3 0.0
12/08:46pm 12.3 9.8 9.7 84 1.4 ESE 13 17 7 9 1017.6 1015.2 0.0
12/08:30pm 12.3 9.6 9.1 81 1.7 E 13 17 7 9 1017.4 1015.0 0.0
12/08:00pm 12.5 9.8 9.0 79 1.8 ESE 13 17 7 9 1017.1 1014.8 0.0
12/07:37pm 12.6 8.7 8.7 77 2.0 ESE 19 24 10 13 1016.8 1014.5 0.0
12/07:30pm 12.7 9.2 8.6 76 2.1 ESE 17 22 9 12 1016.6 1014.2 0.0
12/07:00pm 12.4 7.5 8.3 76 2.1 ESE 24 32 13 17 1015.8 1013.4 0.0

Other formats

Comma delimited format used in spreadsheet applications
http://www.bom.gov.au/fwo/IDN60801/IDN60801.94927.axf

JavaScript Object Notation format (JSON) in row-major order
http://www.bom.gov.au/fwo/IDN60801/IDN60801.94927.json

Data quality

Most of these data are generated automatically and are frequently updated. Quality checks on data are not normally performed. It is possible for incorrect values to appear. Refer to information at About Latest Weather Observations and please check the disclaimer before using these data.